Time;durP1;ratioP1;P1;durP2;ratioP2;P2;SDS_P1;SDS_P2;PMS_P1;PMS_P2;Temp;Humidity;BMP_temperature;BMP_pressure;BME280_temperature;BME280_humidity;BME280_pressure;Samples;Min_cycle;Max_cycle;Signal;HPM_P1;HPM_P2
2022/02/26 00:01:42;;;;;;;0.40;0.40;;;;;;;;;;5023131;28;20033;-77
2022/02/26 00:04:08;;;;;;;0.50;0.50;;;;;;;;;;5024619;28;20033;-77
2022/02/26 00:06:35;;;;;;;0.60;0.60;;;;;;;;;;5023772;28;20037;-77
2022/02/26 00:09:01;;;;;;;0.70;0.70;;;;;;;;;;5023685;28;20041;-77
2022/02/26 00:11:27;;;;;;;0.50;0.50;;;;;;;;;;5024044;28;20387;-77
2022/02/26 00:13:53;;;;;;;0.50;0.50;;;;;;;;;;5023619;28;20064;-76
2022/02/26 00:16:19;;;;;;;0.63;0.63;;;;;;;;;;5024287;28;20544;-77
2022/02/26 00:18:45;;;;;;;0.70;0.70;;;;;;;;;;5023188;28;20048;-76
2022/02/26 00:21:13;;;;;;;0.70;0.70;;;;;;;;;;5022971;28;20618;-76
2022/02/26 00:23:39;;;;;;;0.63;0.63;;;;;;;;;;5023084;28;20107;-76
2022/02/26 00:26:05;;;;;;;0.50;0.50;;;;;;;;;;5023352;28;20057;-77
2022/02/26 00:28:31;;;;;;;0.50;0.50;;;;;;;;;;5023336;28;20103;-77
2022/02/26 00:30:57;;;;;;;0.70;0.70;;;;;;;;;;5023554;28;20022;-80
2022/02/26 00:33:23;;;;;;;0.67;0.67;;;;;;;;;;5023407;28;20041;-79
2022/02/26 00:35:49;;;;;;;0.60;0.60;;;;;;;;;;5025185;28;20826;-79
2022/02/26 00:38:15;;;;;;;0.60;0.60;;;;;;;;;;5035314;28;20022;-79
2022/02/26 00:40:41;;;;;;;0.75;0.75;;;;;;;;;;5023523;28;20139;-79
2022/02/26 00:43:08;;;;;;;0.90;0.90;;;;;;;;;;5023806;28;20030;-79
2022/02/26 00:45:34;;;;;;;;;;;;;;;;;;5023252;28;20460;-79
2022/02/26 00:48:00;;;;;;;0.50;0.50;;;;;;;;;;5022927;28;19941;-79
2022/02/26 00:50:26;;;;;;;0.60;0.60;;;;;;;;;;5023144;28;20041;-80
2022/02/26 00:52:54;;;;;;;0.70;0.70;;;;;;;;;;5022851;28;20052;-80
2022/02/26 00:55:22;;;;;;;0.60;0.60;;;;;;;;;;5023282;28;20029;-80
2022/02/26 00:57:48;;;;;;;0.60;0.60;;;;;;;;;;5022857;28;20501;-80
2022/02/26 01:00:14;;;;;;;0.52;0.52;;;;;;;;;;5022556;28;20783;-80
2022/02/26 01:02:40;;;;;;;0.50;0.50;;;;;;;;;;5023125;28;20033;-81
2022/02/26 01:05:06;;;;;;;0.50;0.50;;;;;;;;;;5023128;28;20742;-80
2022/02/26 01:07:33;;;;;;;0.30;0.30;;;;;;;;;;5021115;28;20017;-79
2022/02/26 01:09:59;;;;;;;0.60;0.60;;;;;;;;;;5023798;28;20037;-80
2022/02/26 01:12:25;;;;;;;0.60;0.60;;;;;;;;;;5021052;28;20039;-79
2022/02/26 01:14:51;;;;;;;0.43;0.43;;;;;;;;;;5027330;28;20120;-81
2022/02/26 01:17:17;;;;;;;0.60;0.60;;;;;;;;;;5026967;28;20046;-81
2022/02/26 01:19:44;;;;;;;0.60;0.60;;;;;;;;;;5026384;28;20037;-81
2022/02/26 01:22:10;;;;;;;1.00;1.00;;;;;;;;;;5027262;28;20021;-81
2022/02/26 01:24:36;;;;;;;0.60;0.60;;;;;;;;;;5026678;28;20037;-81
2022/02/26 01:27:03;;;;;;;25.33;4.47;;;;;;;;;;5026445;28;20030;-81
2022/02/26 01:29:29;;;;;;;0.30;0.30;;;;;;;;;;5024580;28;20120;-81
2022/02/26 01:31:55;;;;;;;0.30;0.30;;;;;;;;;;5026296;28;20033;-81
2022/02/26 01:34:21;;;;;;;0.73;0.73;;;;;;;;;;5027034;28;20046;-80
2022/02/26 01:36:47;;;;;;;0.60;0.60;;;;;;;;;;5026428;28;20036;-80
2022/02/26 01:39:13;;;;;;;0.30;0.30;;;;;;;;;;5026173;28;20029;-81
2022/02/26 01:41:40;;;;;;;0.50;0.50;;;;;;;;;;5026173;28;20045;-81
2022/02/26 01:44:06;;;;;;;1.80;0.90;;;;;;;;;;5026542;28;20138;-81
2022/02/26 01:46:33;;;;;;;0.47;0.47;;;;;;;;;;5026432;28;20117;-80
2022/02/26 01:48:59;;;;;;;0.50;0.50;;;;;;;;;;5027205;28;20107;-80
2022/02/26 01:51:25;;;;;;;1.00;1.00;;;;;;;;;;5026284;28;20520;-79
2022/02/26 01:53:51;;;;;;;0.40;0.40;;;;;;;;;;5026029;28;20034;-79
2022/02/26 01:56:17;;;;;;;0.40;0.40;;;;;;;;;;5025819;28;20122;-81
2022/02/26 01:58:44;;;;;;;0.50;0.50;;;;;;;;;;5025689;28;20060;-81
2022/02/26 02:01:11;;;;;;;0.55;0.55;;;;;;;;;;5026375;28;20037;-81
2022/02/26 02:03:37;;;;;;;0.55;0.55;;;;;;;;;;5025320;28;20398;-81
2022/02/26 02:06:03;;;;;;;0.60;0.60;;;;;;;;;;5025654;28;20052;-86
2022/02/26 02:08:30;;;;;;;0.60;0.60;;;;;;;;;;5025819;28;20819;-86
2022/02/26 02:10:56;;;;;;;0.50;0.50;;;;;;;;;;5025736;28;20064;-86
2022/02/26 02:13:23;;;;;;;0.50;0.50;;;;;;;;;;5026207;28;20076;-85
2022/02/26 02:15:49;;;;;;;0.60;0.60;;;;;;;;;;5025828;28;20021;-85
2022/02/26 02:18:16;;;;;;;0.43;0.43;;;;;;;;;;5025803;28;20025;-86
2022/02/26 02:20:42;;;;;;;;;;;;;;;;;;5026444;28;20148;-86
2022/02/26 02:23:09;;;;;;;0.40;0.40;;;;;;;;;;5025534;28;20051;-86
2022/02/26 02:25:36;;;;;;;0.40;0.40;;;;;;;;;;5025821;28;20041;-84
2022/02/26 02:28:01;;;;;;;;;;;;;;;;;;5023692;28;20496;-86
2022/02/26 02:30:28;;;;;;;0.40;0.40;;;;;;;;;;5025713;28;19924;-86
2022/02/26 02:32:54;;;;;;;;;;;;;;;;;;5025989;28;20045;-87
2022/02/26 02:35:24;;;;;;;0.60;0.60;;;;;;;;;;5025609;28;20755;-87
2022/02/26 02:37:50;;;;;;;0.40;0.40;;;;;;;;;;5015545;28;20034;-87
2022/02/26 02:40:16;;;;;;;0.40;0.40;;;;;;;;;;5026285;28;20061;-87
2022/02/26 02:42:42;;;;;;;0.55;0.55;;;;;;;;;;5025679;28;20029;-87
2022/02/26 02:45:08;;;;;;;0.30;0.30;;;;;;;;;;5025551;28;20037;-85
2022/02/26 02:47:34;;;;;;;0.73;0.73;;;;;;;;;;5025111;28;20030;-84
2022/02/26 02:50:00;;;;;;;0.30;0.30;;;;;;;;;;5025235;28;20112;-83
2022/02/26 02:52:26;;;;;;;0.30;0.30;;;;;;;;;;5025407;28;20060;-82
2022/02/26 02:54:52;;;;;;;0.50;0.50;;;;;;;;;;5025476;28;20022;-82
2022/02/26 02:57:18;;;;;;;0.67;0.67;;;;;;;;;;5025173;28;20116;-83
2022/02/26 02:59:44;;;;;;;0.40;0.40;;;;;;;;;;5024817;28;20072;-82
2022/02/26 03:02:10;;;;;;;0.30;0.30;;;;;;;;;;5025110;28;20040;-82
2022/02/26 03:04:36;;;;;;;0.40;0.40;;;;;;;;;;5025247;28;20671;-82
2022/02/26 03:07:03;;;;;;;0.65;0.65;;;;;;;;;;5025865;28;20029;-81
2022/02/26 03:09:29;;;;;;;0.22;0.22;;;;;;;;;;5024912;28;20029;-82
2022/02/26 03:11:55;;;;;;;0.37;0.37;;;;;;;;;;5024924;28;20586;-81
2022/02/26 03:14:21;;;;;;;0.50;0.50;;;;;;;;;;5025238;28;20183;-82
2022/02/26 03:16:47;;;;;;;0.20;0.20;;;;;;;;;;5025184;28;20489;-82
2022/02/26 03:19:13;;;;;;;0.37;0.37;;;;;;;;;;5025761;28;20048;-82
2022/02/26 03:21:42;;;;;;;0.10;0.10;;;;;;;;;;5024944;28;20045;-82
2022/02/26 03:24:12;;;;;;;0.20;0.20;;;;;;;;;;5020514;28;20087;-82
2022/02/26 03:26:38;;;;;;;0.43;0.30;;;;;;;;;;5024753;28;20045;-82
2022/02/26 03:29:07;;;;;;;0.10;0.10;;;;;;;;;;5024668;28;20048;-81
2022/02/26 03:31:33;;;;;;;0.10;0.10;;;;;;;;;;5024831;28;20036;-81
2022/02/26 03:33:59;;;;;;;0.57;0.57;;;;;;;;;;5025244;28;20444;-82
2022/02/26 03:36:27;;;;;;;0.20;0.20;;;;;;;;;;5023070;28;20049;-84
2022/02/26 03:38:54;;;;;;;0.20;0.20;;;;;;;;;;5024201;28;20028;-87
2022/02/26 03:41:20;;;;;;;1.98;1.13;;;;;;;;;;5024271;28;20119;-84
2022/02/26 03:43:46;;;;;;;0.20;0.20;;;;;;;;;;5024212;28;20337;-85
2022/02/26 03:46:12;;;;;;;0.30;0.30;;;;;;;;;;5024821;28;20041;-84
2022/02/26 03:48:39;;;;;;;0.30;0.30;;;;;;;;;;5024206;28;20057;-84
2022/02/26 03:51:06;;;;;;;0.30;0.30;;;;;;;;;;5023837;28;20037;-84
2022/02/26 03:53:32;;;;;;;0.20;0.20;;;;;;;;;;5020024;28;20167;-85
2022/02/26 03:55:59;;;;;;;0.30;0.30;;;;;;;;;;5024337;28;20033;-81
2022/02/26 03:58:25;;;;;;;0.30;0.30;;;;;;;;;;5024153;28;20077;-82
2022/02/26 04:00:51;;;;;;;0.40;0.40;;;;;;;;;;5024208;28;20058;-82
2022/02/26 04:03:17;;;;;;;0.30;0.30;;;;;;;;;;5023666;28;20128;-82
2022/02/26 04:05:43;;;;;;;1.37;1.30;;;;;;;;;;5024470;28;20049;-83
2022/02/26 04:08:09;;;;;;;0.20;0.20;;;;;;;;;;5024332;28;20017;-83
2022/02/26 04:10:35;;;;;;;0.20;0.20;;;;;;;;;;5024377;28;20038;-87
2022/02/26 04:13:03;;;;;;;0.97;0.97;;;;;;;;;;5022141;28;20112;-85
2022/02/26 04:15:29;;;;;;;0.20;0.20;;;;;;;;;;5022708;28;20041;-86
2022/02/26 04:17:55;;;;;;;0.50;0.50;;;;;;;;;;5024332;28;20029;-86
2022/02/26 04:20:21;;;;;;;0.20;0.20;;;;;;;;;;5024517;28;20315;-87
2022/02/26 04:22:47;;;;;;;0.20;0.20;;;;;;;;;;5024457;28;20025;-89
2022/02/26 04:25:13;;;;;;;0.10;0.10;;;;;;;;;;5025648;28;20056;-89
2022/02/26 04:27:40;;;;;;;0.43;0.43;;;;;;;;;;5023851;28;20416;-85
2022/02/26 04:30:08;;;;;;;0.53;0.50;;;;;;;;;;5020011;28;20033;-85
2022/02/26 04:32:34;;;;;;;0.28;0.28;;;;;;;;;;5023775;28;20280;-85
2022/02/26 04:35:00;;;;;;;0.20;0.20;;;;;;;;;;5023521;28;20107;-85
2022/02/26 04:37:27;;;;;;;0.20;0.20;;;;;;;;;;5023471;28;20580;-86
2022/02/26 04:39:53;;;;;;;0.20;0.20;;;;;;;;;;5024346;28;20041;-87
2022/02/26 04:42:19;;;;;;;0.20;0.20;;;;;;;;;;5023661;28;20563;-85
2022/02/26 04:44:46;;;;;;;0.20;0.20;;;;;;;;;;5023111;28;20037;-85
2022/02/26 04:47:12;;;;;;;0.30;0.30;;;;;;;;;;5022951;28;20505;-85
2022/02/26 04:49:39;;;;;;;1.27;1.20;;;;;;;;;;5023005;28;20261;-84
2022/02/26 04:52:05;;;;;;;0.20;0.20;;;;;;;;;;5023613;28;20033;-86
2022/02/26 04:54:32;;;;;;;0.22;0.22;;;;;;;;;;5022944;28;20082;-86
2022/02/26 04:56:58;;;;;;;0.25;0.25;;;;;;;;;;5023254;28;20065;-86
2022/02/26 04:59:24;;;;;;;0.30;0.30;;;;;;;;;;5023092;28;20050;-86
2022/02/26 05:01:50;;;;;;;0.20;0.20;;;;;;;;;;5007539;28;20501;-86
2022/02/26 05:04:16;;;;;;;0.45;0.45;;;;;;;;;;5023334;28;20140;-85
2022/02/26 05:06:42;;;;;;;0.30;0.30;;;;;;;;;;5022953;28;20037;-81
2022/02/26 05:09:08;;;;;;;0.30;0.30;;;;;;;;;;5022290;28;20029;-80
2022/02/26 05:11:34;;;;;;;0.57;0.57;;;;;;;;;;5022249;28;20053;-79
2022/02/26 05:14:00;;;;;;;0.20;0.20;;;;;;;;;;5022594;28;20040;-80
2022/02/26 05:16:26;;;;;;;0.20;0.20;;;;;;;;;;5022803;28;20044;-80
2022/02/26 05:18:53;;;;;;;0.40;0.40;;;;;;;;;;5023254;28;20030;-80
2022/02/26 05:21:19;;;;;;;0.30;0.30;;;;;;;;;;5022227;28;20571;-81
2022/02/26 05:23:45;;;;;;;0.10;0.10;;;;;;;;;;5022386;28;20033;-82
2022/02/26 05:26:14;;;;;;;0.10;0.10;;;;;;;;;;5022529;28;20037;-81
2022/02/26 05:28:40;;;;;;;0.47;0.47;;;;;;;;;;5022225;28;20025;-81
2022/02/26 05:31:07;;;;;;;0.13;0.13;;;;;;;;;;5022950;28;20060;-81
2022/02/26 05:33:34;;;;;;;0.20;0.20;;;;;;;;;;5021737;28;20089;-81
2022/02/26 05:36:00;;;;;;;0.20;0.20;;;;;;;;;;5022613;28;20060;-80
2022/02/26 05:38:26;;;;;;;0.63;0.63;;;;;;;;;;5022247;28;20140;-81
2022/02/26 05:40:53;;;;;;;0.20;0.20;;;;;;;;;;5022672;28;20049;-81
2022/02/26 05:43:19;;;;;;;0.20;0.20;;;;;;;;;;5018958;28;20112;-81
2022/02/26 05:45:45;;;;;;;0.20;0.20;;;;;;;;;;5022458;28;20101;-81
2022/02/26 05:48:11;;;;;;;0.20;0.20;;;;;;;;;;5022476;28;20048;-82
2022/02/26 05:50:37;;;;;;;0.73;0.73;;;;;;;;;;5018120;28;20033;-81
2022/02/26 05:53:04;;;;;;;0.20;0.20;;;;;;;;;;5022498;28;20040;-81
2022/02/26 05:55:31;;;;;;;0.20;0.20;;;;;;;;;;5022784;28;20032;-77
2022/02/26 05:57:57;;;;;;;;;;;;;;;;;;5022942;28;20053;-77
2022/02/26 06:00:23;;;;;;;0.30;0.30;;;;;;;;;;5025967;28;19925;-77
2022/02/26 06:02:49;;;;;;;0.20;0.20;;;;;;;;;;5026077;28;20033;-80
2022/02/26 06:05:15;;;;;;;0.20;0.20;;;;;;;;;;5026357;28;20116;-80
2022/02/26 06:07:41;;;;;;;0.20;0.20;;;;;;;;;;5024459;28;20075;-84
2022/02/26 06:10:07;;;;;;;0.10;0.10;;;;;;;;;;5026749;28;20021;-87
2022/02/26 06:12:33;;;;;;;0.47;0.47;;;;;;;;;;5025841;28;20037;-87
2022/02/26 06:14:59;;;;;;;0.20;0.20;;;;;;;;;;5025913;28;20519;-88
2022/02/26 06:17:25;;;;;;;0.30;0.30;;;;;;;;;;5025705;28;20091;-88
2022/02/26 06:19:51;;;;;;;0.10;0.10;;;;;;;;;;5025859;28;20045;-87
2022/02/26 06:22:17;;;;;;;0.25;0.25;;;;;;;;;;5026658;28;20041;-84
2022/02/26 06:24:43;;;;;;;0.30;0.30;;;;;;;;;;5026055;28;20036;-87
2022/02/26 06:27:10;;;;;;;0.20;0.20;;;;;;;;;;5024025;28;20048;-88
2022/02/26 06:29:36;;;;;;;0.23;0.23;;;;;;;;;;5025828;28;20025;-87
2022/02/26 06:32:02;;;;;;;0.20;0.20;;;;;;;;;;5025500;28;20876;-86
2022/02/26 06:34:28;;;;;;;0.20;0.20;;;;;;;;;;5025742;28;20033;-86
2022/02/26 06:36:54;;;;;;;0.30;0.30;;;;;;;;;;5021571;28;20283;-84
2022/02/26 06:39:21;;;;;;;0.55;0.55;;;;;;;;;;5025515;28;20095;-83
2022/02/26 06:41:47;;;;;;;0.22;0.22;;;;;;;;;;5025598;28;20037;-85
2022/02/26 06:44:13;;;;;;;0.20;0.20;;;;;;;;;;5025851;28;20896;-86
2022/02/26 06:46:39;;;;;;;0.37;0.37;;;;;;;;;;5024157;28;20037;-87
2022/02/26 06:49:06;;;;;;;0.20;0.20;;;;;;;;;;5024740;28;20766;-87
2022/02/26 06:51:32;;;;;;;0.30;0.30;;;;;;;;;;5025778;28;20033;-88
2022/02/26 06:53:58;;;;;;;0.30;0.30;;;;;;;;;;5025840;28;20063;-87
2022/02/26 06:56:24;;;;;;;0.20;0.20;;;;;;;;;;5021519;28;20037;-87
2022/02/26 06:58:54;;;;;;;0.10;0.10;;;;;;;;;;5009820;28;20525;-88
2022/02/26 07:01:21;;;;;;;2.58;0.65;;;;;;;;;;5021846;28;20049;-85
2022/02/26 07:03:47;;;;;;;0.30;0.30;;;;;;;;;;5023548;28;20055;-84
2022/02/26 07:06:13;;;;;;;0.10;0.10;;;;;;;;;;5025272;28;20413;-82
2022/02/26 07:08:39;;;;;;;0.20;0.20;;;;;;;;;;5025748;28;20034;-80
2022/02/26 07:11:05;;;;;;;0.10;0.10;;;;;;;;;;5025529;28;20026;-82
2022/02/26 07:13:32;;;;;;;1.15;0.65;;;;;;;;;;5024884;28;20124;-80
2022/02/26 07:15:58;;;;;;;0.10;0.10;;;;;;;;;;5024115;28;20092;-81
2022/02/26 07:18:24;;;;;;;0.10;0.10;;;;;;;;;;5019707;28;20300;-80
2022/02/26 07:20:50;;;;;;;0.35;0.35;;;;;;;;;;5018649;28;20046;-80
2022/02/26 07:23:17;;;;;;;0.15;0.15;;;;;;;;;;5020491;28;20037;-81
2022/02/26 07:25:45;;;;;;;0.25;0.20;;;;;;;;;;5020739;28;20076;-81
2022/02/26 07:28:11;;;;;;;0.63;0.38;;;;;;;;;;5020930;28;20789;-81
2022/02/26 07:30:37;;;;;;;0.50;0.50;;;;;;;;;;5021439;28;20084;-81
2022/02/26 07:33:03;;;;;;;0.10;0.10;;;;;;;;;;5020695;28;20810;-81
2022/02/26 07:35:29;;;;;;;0.10;0.10;;;;;;;;;;5024445;28;20069;-81
2022/02/26 07:37:56;;;;;;;0.10;0.10;;;;;;;;;;5022679;28;20053;-81
2022/02/26 07:40:22;;;;;;;0.10;0.10;;;;;;;;;;5020960;28;20572;-80
2022/02/26 07:42:48;;;;;;;0.10;0.10;;;;;;;;;;5023159;28;20321;-80
2022/02/26 07:45:15;;;;;;;0.10;0.10;;;;;;;;;;5024075;28;20311;-80
2022/02/26 07:47:41;;;;;;;0.13;0.13;;;;;;;;;;5024205;28;20041;-80
2022/02/26 07:50:07;;;;;;;0.63;0.53;;;;;;;;;;5023289;28;20036;-81
2022/02/26 07:52:34;;;;;;;0.57;0.57;;;;;;;;;;5021012;28;20371;-83
2022/02/26 07:55:01;;;;;;;0.10;0.10;;;;;;;;;;5019828;28;20033;-88
2022/02/26 07:57:27;;;;;;;0.10;0.10;;;;;;;;;;5019708;28;20627;-82
2022/02/26 07:59:53;;;;;;;1.83;0.50;;;;;;;;;;5018650;28;20554;-79
2022/02/26 08:02:19;;;;;;;0.40;0.40;;;;;;;;;;5018247;28;20046;-79
2022/02/26 08:04:45;;;;;;;0.40;0.40;;;;;;;;;;5003657;28;20061;-79
2022/02/26 08:07:13;;;;;;;0.40;0.40;;;;;;;;;;5012504;28;20283;-82
2022/02/26 08:09:39;;;;;;;0.50;0.50;;;;;;;;;;5023565;28;20216;-82
2022/02/26 08:12:05;;;;;;;0.20;0.20;;;;;;;;;;5019615;28;20556;-82
2022/02/26 08:14:32;;;;;;;0.63;0.63;;;;;;;;;;5013353;28;20040;-83
2022/02/26 08:16:59;;;;;;;0.10;0.10;;;;;;;;;;5024143;28;20288;-81
2022/02/26 08:19:25;;;;;;;0.10;0.10;;;;;;;;;;5024308;28;20061;-82
2022/02/26 08:21:51;;;;;;;0.10;0.10;;;;;;;;;;5020409;28;20535;-82
2022/02/26 08:24:17;;;;;;;0.20;0.20;;;;;;;;;;5023526;28;20033;-82
2022/02/26 08:26:45;;;;;;;0.10;0.10;;;;;;;;;;5020380;28;20042;-82
2022/02/26 08:29:11;;;;;;;0.20;0.20;;;;;;;;;;5021381;28;20040;-81
2022/02/26 08:31:37;;;;;;;0.20;0.20;;;;;;;;;;5020313;28;20820;-81
2022/02/26 08:34:03;;;;;;;0.25;0.25;;;;;;;;;;5018938;28;20100;-81
2022/02/26 08:36:30;;;;;;;0.90;0.57;;;;;;;;;;5021131;28;20045;-81
2022/02/26 08:38:56;;;;;;;0.20;0.20;;;;;;;;;;5023328;28;20034;-81
2022/02/26 08:41:22;;;;;;;0.20;0.20;;;;;;;;;;5027156;28;20041;-81
2022/02/26 08:43:48;;;;;;;0.20;0.20;;;;;;;;;;5020365;28;20091;-80
2022/02/26 08:46:14;;;;;;;0.50;0.50;;;;;;;;;;5022409;28;20021;-82
2022/02/26 08:48:40;;;;;;;1.25;0.35;;;;;;;;;;5022396;28;20036;-81
2022/02/26 08:51:06;;;;;;;0.20;0.20;;;;;;;;;;5021494;28;20037;-82
2022/02/26 08:53:32;;;;;;;0.20;0.20;;;;;;;;;;5024132;28;20533;-81
2022/02/26 08:55:59;;;;;;;0.30;0.30;;;;;;;;;;5021119;28;20037;-81
2022/02/26 08:58:25;;;;;;;0.17;0.17;;;;;;;;;;5023452;28;20280;-81
2022/02/26 09:00:51;;;;;;;0.20;0.20;;;;;;;;;;5023147;28;20040;-81
2022/02/26 09:03:17;;;;;;;0.20;0.20;;;;;;;;;;5023614;28;20276;-81
2022/02/26 09:05:44;;;;;;;0.45;0.38;;;;;;;;;;5023964;28;20149;-83
2022/02/26 09:08:10;;;;;;;0.20;0.20;;;;;;;;;;5023740;28;20653;-79
2022/02/26 09:10:36;;;;;;;0.20;0.20;;;;;;;;;;5023451;28;20037;-80
2022/02/26 09:13:02;;;;;;;0.13;0.13;;;;;;;;;;5024308;28;20437;-80
2022/02/26 09:15:29;;;;;;;0.23;0.23;;;;;;;;;;5021994;28;20280;-84
2022/02/26 09:17:55;;;;;;;0.30;0.30;;;;;;;;;;5023035;28;20117;-82
2022/02/26 09:20:21;;;;;;;0.30;0.30;;;;;;;;;;5022020;28;20041;-79
2022/02/26 09:22:47;;;;;;;0.30;0.30;;;;;;;;;;5023623;28;20025;-79
2022/02/26 09:25:14;;;;;;;0.20;0.20;;;;;;;;;;5023719;28;20051;-79
2022/02/26 09:27:43;;;;;;;0.20;0.20;;;;;;;;;;5023057;28;20120;-79
2022/02/26 09:30:10;;;;;;;0.40;0.40;;;;;;;;;;5006353;28;20095;-80
2022/02/26 09:32:37;;;;;;;3.00;0.45;;;;;;;;;;5023566;28;20216;-79
2022/02/26 09:35:03;;;;;;;0.20;0.20;;;;;;;;;;5025135;28;20037;-78
2022/02/26 09:37:30;;;;;;;0.10;0.10;;;;;;;;;;5022711;28;20025;-80
2022/02/26 09:39:58;;;;;;;0.20;0.20;;;;;;;;;;5026664;28;20485;-80
2022/02/26 09:42:26;;;;;;;0.10;0.10;;;;;;;;;;5025755;28;20041;-79
2022/02/26 09:44:52;;;;;;;0.88;0.80;;;;;;;;;;5019966;28;20428;-78
2022/02/26 09:47:18;;;;;;;0.20;0.20;;;;;;;;;;5027138;28;20036;-77
2022/02/26 09:49:44;;;;;;;0.37;0.27;;;;;;;;;;5025611;28;20047;-77
2022/02/26 09:52:11;;;;;;;0.30;0.30;;;;;;;;;;5025271;28;20268;-77
2022/02/26 09:54:37;;;;;;;0.20;0.20;;;;;;;;;;5026197;28;20034;-78
2022/02/26 09:57:03;;;;;;;0.20;0.20;;;;;;;;;;5024944;28;20025;-79
2022/02/26 09:59:29;;;;;;;0.10;0.10;;;;;;;;;;5021193;28;20061;-79
2022/02/26 10:01:56;;;;;;;0.10;0.10;;;;;;;;;;5024905;28;20584;-78
2022/02/26 10:04:22;;;;;;;;;;;;;;;;;;5027600;28;20033;-80
2022/02/26 10:06:48;;;;;;;1.35;1.27;;;;;;;;;;5026835;28;19913;-82
2022/02/26 10:09:15;;;;;;;0.10;0.10;;;;;;;;;;5024856;28;20065;-81
2022/02/26 10:11:41;;;;;;;0.80;0.52;;;;;;;;;;5025759;28;20049;-81
2022/02/26 10:14:07;;;;;;;0.10;0.10;;;;;;;;;;5026703;28;20032;-81
2022/02/26 10:16:53;;;;;;;0.88;0.85;;;;;;;;;;5024291;28;20033;-81
2022/02/26 10:19:27;;;;;;;0.32;0.32;;;;;;;;;;5027886;28;20041;-81
2022/02/26 10:21:56;;;;;;;0.20;0.20;;;;;;;;;;5022894;28;20140;-81
2022/02/26 10:24:22;;;;;;;0.28;0.28;;;;;;;;;;5026826;28;20505;-81
2022/02/26 10:26:52;;;;;;;0.10;0.10;;;;;;;;;;5026200;28;20037;-81
2022/02/26 10:29:19;;;;;;;0.95;0.55;;;;;;;;;;5025206;28;20075;-82
2022/02/26 10:31:56;;;;;;;7.22;0.43;;;;;;;;;;5023703;28;20040;-79
2022/02/26 10:34:22;;;;;;;;;;;;;;;;;;5021731;28;20147;-76
2022/02/26 10:36:57;;;;;;;0.40;0.40;;;;;;;;;;5024603;28;20007;-77
2022/02/26 10:39:49;;;;;;;0.40;0.40;;;;;;;;;;5020222;28;20508;-81
2022/02/26 10:42:23;;;;;;;0.20;0.20;;;;;;;;;;5020597;28;20060;-78
2022/02/26 10:45:12;;;;;;;0.20;0.20;;;;;;;;;;5020370;28;20064;-79
2022/02/26 10:47:41;;;;;;;0.20;0.20;;;;;;;;;;5020588;28;20087;-79
2022/02/26 10:50:21;;;;;;;0.30;0.30;;;;;;;;;;5023656;28;20029;-79
2022/02/26 10:53:06;;;;;;;0.10;0.10;;;;;;;;;;5019905;28;20111;-81
2022/02/26 10:55:51;;;;;;;0.63;0.63;;;;;;;;;;5023876;28;20037;-83
2022/02/26 10:58:21;;;;;;;0.13;0.13;;;;;;;;;;5025862;28;20059;-83
2022/02/26 11:00:47;;;;;;;0.30;0.30;;;;;;;;;;5024424;28;20029;-84
2022/02/26 11:03:13;;;;;;;0.20;0.20;;;;;;;;;;5024432;28;20037;-84
2022/02/26 11:05:39;;;;;;;0.20;0.20;;;;;;;;;;5024751;28;20029;-84
2022/02/26 11:08:06;;;;;;;0.20;0.20;;;;;;;;;;5024448;28;20033;-83
2022/02/26 11:10:32;;;;;;;0.20;0.20;;;;;;;;;;5024637;28;20783;-83
2022/02/26 11:13:00;;;;;;;0.23;0.23;;;;;;;;;;5023554;28;20104;-84
2022/02/26 11:15:28;;;;;;;0.20;0.20;;;;;;;;;;5024260;28;20037;-83
2022/02/26 11:17:55;;;;;;;0.20;0.20;;;;;;;;;;5024493;28;20026;-85
2022/02/26 11:20:26;;;;;;;;;;;;;;;;;;5024762;28;20041;-84
2022/02/26 11:22:53;;;;;;;0.20;0.20;;;;;;;;;;5024184;28;19956;-84
2022/02/26 11:25:18;;;;;;;;;;;;;;;;;;5024512;28;20568;-84
2022/02/26 11:27:45;;;;;;;0.20;0.20;;;;;;;;;;5023248;28;19913;-84
2022/02/26 11:30:14;;;;;;;1.55;0.40;;;;;;;;;;5023603;28;20072;-84
2022/02/26 11:32:43;;;;;;;0.30;0.30;;;;;;;;;;5020759;28;20386;-84
2022/02/26 11:35:16;;;;;;;0.30;0.30;;;;;;;;;;5023290;28;20095;-84
2022/02/26 11:37:42;;;;;;;0.30;0.30;;;;;;;;;;5024313;28;20036;-85
2022/02/26 11:40:12;;;;;;;0.30;0.30;;;;;;;;;;5021320;28;20124;-84
2022/02/26 11:42:42;;;;;;;0.30;0.30;;;;;;;;;;5021744;28;20594;-85
2022/02/26 11:45:10;;;;;;;0.30;0.30;;;;;;;;;;5024261;28;20781;-84
2022/02/26 11:47:36;;;;;;;0.30;0.30;;;;;;;;;;5023510;28;20045;-85
2022/02/26 11:50:07;;;;;;;0.30;0.30;;;;;;;;;;5024366;28;20092;-85
2022/02/26 11:52:36;;;;;;;0.32;0.32;;;;;;;;;;5020132;28;20059;-84
2022/02/26 11:55:03;;;;;;;0.30;0.30;;;;;;;;;;5030511;28;20029;-84
2022/02/26 11:57:30;;;;;;;0.30;0.30;;;;;;;;;;5023450;28;20460;-85
2022/02/26 12:00:09;;;;;;;0.30;0.30;;;;;;;;;;5023182;28;20038;-85
2022/02/26 12:02:37;;;;;;;0.40;0.40;;;;;;;;;;5024277;28;20718;-85
2022/02/26 12:05:04;;;;;;;0.30;0.30;;;;;;;;;;5023866;28;20500;-85
2022/02/26 12:07:41;;;;;;;0.30;0.30;;;;;;;;;;5024474;28;20056;-85
2022/02/26 12:10:08;;;;;;;0.50;0.50;;;;;;;;;;5022407;28;20119;-85
2022/02/26 12:12:40;;;;;;;0.30;0.30;;;;;;;;;;5023475;28;20090;-85
2022/02/26 12:15:18;;;;;;;0.30;0.30;;;;;;;;;;5023136;28;20037;-84
2022/02/26 12:17:47;;;;;;;0.82;0.45;;;;;;;;;;5023521;28;20048;-85
2022/02/26 12:20:14;;;;;;;0.30;0.30;;;;;;;;;;5023726;28;20528;-85
2022/02/26 12:22:40;;;;;;;;;;;;;;;;;;5024355;28;20144;-85
2022/02/26 12:25:13;;;;;;;0.30;0.30;;;;;;;;;;5024127;28;20472;-85
2022/02/26 12:27:39;;;;;;;0.30;0.30;;;;;;;;;;5023509;28;20064;-85
2022/02/26 12:30:10;;;;;;;0.30;0.30;;;;;;;;;;5019103;28;20168;-85
2022/02/26 12:32:55;;;;;;;0.30;0.30;;;;;;;;;;5014623;28;20033;-85
2022/02/26 12:35:24;;;;;;;0.30;0.30;;;;;;;;;;5023412;28;20087;-84
2022/02/26 12:37:50;;;;;;;0.20;0.20;;;;;;;;;;5022551;28;20056;-85
2022/02/26 12:40:20;;;;;;;0.20;0.20;;;;;;;;;;5021396;28;20041;-85
2022/02/26 12:42:48;;;;;;;0.20;0.20;;;;;;;;;;5022226;28;20124;-86
2022/02/26 12:45:15;;;;;;;0.30;0.30;;;;;;;;;;5022330;28;20033;-85
2022/02/26 12:47:42;;;;;;;0.30;0.30;;;;;;;;;;5021090;28;20610;-86
2022/02/26 12:50:10;;;;;;;0.30;0.30;;;;;;;;;;5029373;28;20041;-87
2022/02/26 12:52:38;;;;;;;0.40;0.40;;;;;;;;;;5027296;28;20037;-87
2022/02/26 12:55:12;;;;;;;0.30;0.30;;;;;;;;;;5021934;28;20712;-83
2022/02/26 12:57:40;;;;;;;0.43;0.43;;;;;;;;;;5017878;28;20033;-84
2022/02/26 13:00:07;;;;;;;0.30;0.30;;;;;;;;;;5021304;28;20576;-84
2022/02/26 13:02:38;;;;;;;0.30;0.30;;;;;;;;;;5021763;28;20062;-84
2022/02/26 13:05:04;;;;;;;0.32;0.32;;;;;;;;;;5021101;28;20025;-84
2022/02/26 13:07:30;;;;;;;0.30;0.30;;;;;;;;;;5021122;28;20033;-84
2022/02/26 13:09:57;;;;;;;0.30;0.30;;;;;;;;;;5022750;28;20488;-84
2022/02/26 13:12:23;;;;;;;;;;;;;;;;;;5023629;28;20766;-84
2022/02/26 13:14:52;;;;;;;0.30;0.30;;;;;;;;;;5022818;28;19917;-84
2022/02/26 13:17:18;;;;;;;0.30;0.30;;;;;;;;;;5023111;28;20105;-84
2022/02/26 13:19:44;;;;;;;0.30;0.30;;;;;;;;;;5020632;28;20040;-84
2022/02/26 13:22:10;;;;;;;0.53;0.50;;;;;;;;;;5023471;28;20048;-84
2022/02/26 13:24:38;;;;;;;0.30;0.30;;;;;;;;;;5021098;28;20108;-83
2022/02/26 13:27:05;;;;;;;0.40;0.40;;;;;;;;;;5019722;28;20363;-83
2022/02/26 13:29:35;;;;;;;0.40;0.40;;;;;;;;;;5004538;28;20026;-83
2022/02/26 13:32:01;;;;;;;0.30;0.30;;;;;;;;;;5021858;28;20049;-84
2022/02/26 13:34:27;;;;;;;0.30;0.30;;;;;;;;;;5019829;28;20056;-84
2022/02/26 13:36:54;;;;;;;0.30;0.30;;;;;;;;;;5020626;28;20043;-83
2022/02/26 13:39:21;;;;;;;0.30;0.30;;;;;;;;;;5020724;28;20033;-84
2022/02/26 13:42:03;;;;;;;0.30;0.30;;;;;;;;;;5016864;28;20123;-84
2022/02/26 13:44:33;;;;;;;0.40;0.40;;;;;;;;;;5018759;28;20034;-84
2022/02/26 13:46:59;;;;;;;0.40;0.40;;;;;;;;;;5019938;28;20492;-85
2022/02/26 13:49:25;;;;;;;0.30;0.30;;;;;;;;;;5022689;28;20034;-84
2022/02/26 13:51:51;;;;;;;0.50;0.50;;;;;;;;;;5021900;28;20073;-83
2022/02/26 13:54:17;;;;;;;0.40;0.40;;;;;;;;;;5019677;28;20063;-82
2022/02/26 13:56:43;;;;;;;0.30;0.30;;;;;;;;;;5017854;28;20948;-84
2022/02/26 13:59:13;;;;;;;0.30;0.30;;;;;;;;;;5018503;28;20049;-84
2022/02/26 14:01:51;;;;;;;0.30;0.30;;;;;;;;;;5021695;28;20053;-83
2022/02/26 14:04:21;;;;;;;0.30;0.30;;;;;;;;;;5022241;28;20033;-80
2022/02/26 14:06:47;;;;;;;0.30;0.30;;;;;;;;;;5020186;28;20428;-82
2022/02/26 14:09:19;;;;;;;0.30;0.30;;;;;;;;;;5022121;28;20737;-81
2022/02/26 14:11:50;;;;;;;0.30;0.30;;;;;;;;;;5020320;28;20041;-82
2022/02/26 14:14:24;;;;;;;0.30;0.30;;;;;;;;;;5017925;28;20037;-82
2022/02/26 14:16:50;;;;;;;0.30;0.30;;;;;;;;;;5019826;28;20033;-82
2022/02/26 14:19:16;;;;;;;0.40;0.40;;;;;;;;;;5022389;28;20055;-82
2022/02/26 14:21:42;;;;;;;0.30;0.30;;;;;;;;;;5022072;28;20040;-82
2022/02/26 14:24:09;;;;;;;0.50;0.50;;;;;;;;;;5022115;28;20273;-82
2022/02/26 14:26:35;;;;;;;0.20;0.20;;;;;;;;;;5022566;28;20067;-82
2022/02/26 14:29:02;;;;;;;0.30;0.30;;;;;;;;;;5023905;28;20029;-82
2022/02/26 14:31:28;;;;;;;0.20;0.20;;;;;;;;;;5025883;28;20040;-82
2022/02/26 14:33:54;;;;;;;0.30;0.30;;;;;;;;;;5026765;28;20048;-82
2022/02/26 14:36:20;;;;;;;0.30;0.30;;;;;;;;;;5024014;28;20056;-82
2022/02/26 14:38:47;;;;;;;0.30;0.30;;;;;;;;;;5024321;28;20021;-82
2022/02/26 14:41:13;;;;;;;0.30;0.30;;;;;;;;;;5023335;28;20064;-81
2022/02/26 14:43:39;;;;;;;0.30;0.30;;;;;;;;;;5024394;28;20029;-81
2022/02/26 14:46:06;;;;;;;0.30;0.30;;;;;;;;;;5022236;28;20060;-81